ADDS METAR Data INFO
IDs: Format: Raw Decoded Include TAF

Data at: 2232 UTC 11 Dec 2017

KGXY 112156Z AUTO 35025G31KT 10SM CLR 14/M13 A3032 RMK AO2 PK WND 35033/2120 SLP292 T01441128
KGXY 112056Z AUTO 35018G27KT 10SM CLR 16/M13 A3031 RMK AO2 PK WND 34029/2040 SLP283 T01561133 56016
KGXY 111956Z AUTO VRB03KT 10SM CLR 13/M13 A3031 RMK AO2 SLP290 T01281128
KGXY 111856Z AUTO 21006KT 10SM CLR 09/M12 A3034 RMK AO2 SLP306 T00941117
KGXY 111756Z AUTO 20005KT 10SM CLR 09/M11 A3036 RMK AO2 SLP312 T00891106 10094 21111 50006
KGXY 111656Z AUTO 00000KT 10SM CLR 05/M12 A3036 RMK AO2 SLP316 T00501122
KGXY 111556Z AUTO 21005KT 7SM CLR M02/M11 A3035 RMK AO2 SLP328 T10221111 FZRANO
KGXY 111456Z AUTO 00000KT 10SM CLR M08/M14 A3033 RMK AO2 SLP333 T10781144 53008 FZRANO
KGXY 111356Z AUTO 24008KT 210V290 10SM CLR M09/M16 A3032 RMK AO2 SLP328 T10941156 FZRANO
KGXY 111256Z AUTO VRB03KT 10SM CLR M11/M15 A3031 RMK AO2 SLP322 T11061150 FZRANO
KGXY 111156Z AUTO 00000KT 8SM CLR M11/M15 A3031 RMK AO2 SLP312 T11061150 11067 21106 58008 FZRANO
KGXY 111056Z AUTO 34003KT 10SM CLR M10/M14 A3032 RMK AO2 SLP299 T11001144 FZRANO
KGXY 110956Z AUTO 16003KT 8SM CLR M09/M14 A3033 RMK AO2 SLP298 T10891144 FZRANO
KGXY 110856Z AUTO 26004KT 10SM CLR M08/M15 A3033 RMK AO2 SLP298 T10781150 51001 FZRANO
KGXY 110756Z AUTO 30004KT 10SM CLR M08/M16 A3033 RMK AO2 SLP299 T10781161 FZRANO
KGXY 110656Z AUTO 31003KT 10SM CLR M08/M16 A3034 RMK AO2 SLP305 T10781156 401391122 FZRANO
KGXY 110556Z AUTO 29003KT 10SM CLR M07/M16 A3033 RMK AO2 SLP309 T10721156 10061 21078 53004 FZRANO
KGXY 110456Z AUTO 30007KT 10SM CLR M06/M16 A3031 RMK AO2 SLP308 T10561156 FZRANO
KGXY 110356Z AUTO 31006KT 10SM CLR M06/M16 A3032 RMK AO2 SLP320 T10561161 FZRANO
KGXY 110256Z AUTO 32007KT 10SM CLR M05/M17 A3032 RMK AO2 SLP332 T10501167 55001 FZRANO
KGXY 110156Z AUTO 01003KT 9SM CLR M03/M14 A3031 RMK AO2 SLP330 T10281139 FZRANO
KGXY 110056Z AUTO 29003KT 10SM CLR M01/M16 A3031 RMK AO2 SLP320 T10061156 FZRANO
KGXY 102356Z AUTO 31003KT 10SM CLR 03/M15 A3032 RMK AO2 SLP315 T00331150 10139 20033 55003
KGXY 102256Z AUTO 22004KT 10SM CLR 13/M16 A3032 RMK AO2 SLP294 T01281156
KGXY 102156Z AUTO 21003KT 10SM CLR 14/M15 A3033 RMK AO2 SLP293 T01391150
KGXY 102056Z AUTO 23005KT 10SM CLR 13/M16 A3033 RMK AO2 SLP295 T01331156 58026
KGXY 101956Z AUTO 23003KT 10SM CLR 12/M15 A3036 RMK AO2 SLP307 T01171150
KGXY 101856Z AUTO 22005KT 10SM CLR 10/M14 A3040 RMK AO2 SLP322 T01001139
KGXY 101756Z AUTO 00000KT 10SM CLR 06/M12 A3042 RMK AO2 SLP338 T00561117 10056 21122 58001
KGXY 101656Z AUTO 31003KT 10SM CLR 02/M11 A3043 RMK AO2 SLP345 T00171111 FZRANO
KGXY 101556Z AUTO 25005KT 10SM CLR M03/M10 A3042 RMK AO2 SLP349 T10331100 FZRANO
KGXY 101456Z AUTO 31004KT 10SM CLR M09/M16 A3042 RMK AO2 SLP357 T10941161 51008 FZRANO
KGXY 101356Z AUTO 29004KT 10SM CLR M12/M18 A3041 RMK AO2 SLP359 T11171178 FZRANO
KGXY 101256Z AUTO 03003KT 10SM CLR M11/M16 A3041 RMK AO2 SLP349 T11111161 FZRANO
KGXY 101156Z AUTO 35003KT 8SM CLR M09/M14 A3039 RMK AO2 SLP334 T10941139 11050 21100 55002 FZRANO
KGXY 101056Z AUTO 00000KT 10SM CLR M09/M14 A3039 RMK AO2 SLP323 T10891139 FZRANO